x

Texas Tower #4 - 75 Nm East Of Long Beach, Nj (44066) Wave Buoy

12:50am - Wed 23rd Jul 2014 All times are EDT. -4 hours from GMT.

  • Sig Wave height 2.0ft
  • Swell Direction
  • Peak Period 8s
  • Average Period 5s
  • Wind
    11mph, 13mph gusts
  • Sea Temp 73°f
  • Air Temp 73°f
  • Sea Pressure 1018mb
  • Texas Tower #4 - 75 Nm East Of Long Beach, Nj
  • Texas Tower #4 - 75 Nm East Of Long Beach, Nj

More Historic Weather Station data

Upgrade to MSW Pro to gain access to the past 30 days of data for over 8000 Wavebouys and Weather Stations around the globe.

Join Pro

Comparision Forecast

View Surf forecast
   
Wed 07/23 12:50am 2ft 8s 5s 11 13 mph 1018mb 73f 73f
Tue 07/22 11:50pm 2ft 8s 5s 11 13 mph 1018.6mb 74f 73f
10:50pm 2ft 7s 5s 11 13 mph 1019.1mb 74f 73f
9:50pm 2ft 7s 4s 11 13 mph 1019.8mb 74f 73f
8:50pm 2ft 7s 4s 11 13 mph 1019.6mb 74f 73f
7:50pm 2ft 7s 5s 13
mph
1019.6mb 74f 74f
6:50pm 2ft 7s 5s 13 16 mph 1019.8mb 74f 74f
5:50pm 1.6ft 8s 5s 11 13 mph 1019.8mb 75f 74f
4:50pm 1.6ft 7s 6s 13
mph
1020.2mb 74f 74f
3:50pm 2ft 7s 6s 9 11 mph 1020.8mb 74f 74f
2:50pm 2ft 7s 6s 9
mph
1021.2mb 74f 73f
1:50pm 2ft 8s 6s 9 11 mph 1021.3mb 74f 73f
12:50pm 2ft 8s 6s 7 9 mph 1021.5mb 74f 72f
11:50am 2ft 7s 6s 7 9 mph 1021.8mb 74f 72f
10:50am 2.5ft 7s 6s 7 9 mph 1022.1mb 74f 72f
9:50am 2ft 7s 6s 2
mph
1022.2mb 73f 73f
8:50am 2.5ft 7s 6s 2
mph
1022.5mb 73f 73f
7:50am 2.5ft 7s 6s 2 4 mph 1022.6mb 72f 72f
6:50am 2.5ft 7s 6s 4 7 mph 1022.3mb 72f 71f
5:50am 2.5ft 8s 6s 4 7 mph 1021.7mb 72f 71f
4:50am 2.5ft 8s 6s 7 9 mph 1021.3mb 72f 70f
3:50am 2.5ft 6s 6s 9
mph
1021.2mb 72f 70f
2:50am 2.5ft 8s 6s 7
mph
1021.4mb 72f 70f
1:50am 2.5ft 7s 6s 4
mph
1021.5mb 72f 70f
12:50am 2.5ft 8s 6s 2
mph
1021.6mb 73f 69f
Mon 07/21 11:50pm 2.5ft 7s 5s  -  2 mph 1021.7mb 73f 69f
10:50pm 2.5ft 8s 5s 2 4 mph 1021.9mb 73f 70f
9:50pm 3ft 8s 5s 2
mph
1021.9mb 73f 69f
8:50pm 3ft 8s 5s  -  2 mph 1021.6mb 73f 69f
7:50pm 3ft 7s 5s 2 4 mph 1021.7mb 73f 70f
6:50pm 3ft 8s 5s 2 4 mph 1021.7mb 73f 71f
5:50pm 3.5ft 7s 5s 7
mph
1021.4mb 73f 70f
4:50pm 3.5ft 8s 5s 7 9 mph 1021.2mb 73f 70f
3:50pm 3.5ft 8s 5s 9 11 mph 1021.3mb 73f 69f
2:50pm 3.5ft 6s 5s 9 11 mph 1021.7mb 73f 69f
1:50pm 3.5ft 8s 5s 9 11 mph 1021.9mb 73f 69f
12:50pm 3.5ft 8s 5s 13 16 mph 1021.7mb 73f 69f
11:50am 3.5ft 6s 5s 13 18 mph 1021.7mb 73f 69f
10:50am 4ft 6s 5s 13 16 mph 1021.6mb 72f 69f
9:50am 4ft 6s 5s 13 18 mph 1021.6mb 72f 69f
8:50am 4.5ft 6s 5s 16 18 mph 1021.4mb 72f 69f
7:50am 4.5ft 6s 5s 13 18 mph 1021.1mb 72f 69f
6:50am 4.5ft 8s 5s 13 16 mph 1020.4mb 72f 69f
5:50am  -   -   -  11 16 mph 1020.1mb 72f 69f
4:50am 4.5ft 8s 5s 13
mph
1019.5mb 72f 69f
3:50am 4.5ft 6s 5s 13 16 mph 1018.9mb 72f 69f
2:50am 5ft 6s 5s 16 18 mph 1018.9mb 72f 69f
1:50am 5ft 7s 5s 16 20 mph 1018.9mb 72f 69f
12:50am 5ft 6s 5s 18 20 mph 1019mb 72f 69f
Sun 07/20 11:50pm 5ft 7s 5s 18 22 mph 1018.8mb 72f 69f
10:50pm 5ft 8s 5s 18 22 mph 1018.9mb 72f 69f
9:50pm 5.5ft 6s 5s 20 22 mph 1018.8mb 72f 70f
8:50pm 5ft 6s 5s 20 22 mph 1018.2mb 72f 69f
7:50pm 6ft 6s 5s 20 25 mph 1017.9mb 73f 70f
6:50pm 6ft 7s 5s 20 25 mph 1017.7mb 73f 69f
5:50pm 6ft 6s 5s 20 25 mph 1017.4mb 73f 70f
4:50pm 6ft 6s 5s 20 25 mph 1017.2mb 73f 70f
3:50pm 6ft 6s 5s 22 27 mph 1017.5mb 73f 71f
2:50pm 5.5ft 6s 5s 20 25 mph 1017.6mb 73f 71f
1:50pm 6ft 6s 5s 20 25 mph 1018mb 73f 71f
12:50pm 5.5ft 6s 5s 22 27 mph 1018mb 73f 71f
11:50am 5.5ft 8s 5s 22 27 mph 1018.4mb 73f 71f
10:50am 5.5ft 8s 5s 22 25 mph 1018.2mb 73f 71f
9:50am 5ft 6s 5s 22 27 mph 1018.2mb 73f 71f
8:50am 5.5ft 6s 5s 22 27 mph 1018.1mb 73f 72f
7:50am 5ft 7s 5s 22 25 mph 1018.1mb 73f 72f
6:50am 5ft 6s 5s 20 25 mph 1017.8mb 73f 71f
5:50am 5ft 8s 5s 18 20 mph 1017.7mb 73f 72f
4:50am 4.5ft 8s 5s 18 20 mph 1017.5mb 73f 72f
3:50am 4.5ft 6s 5s 18 20 mph 1017.7mb 73f 72f
2:50am 4.5ft 6s 5s 18 20 mph 1018.2mb 73f 72f
1:50am 4.5ft 8s 5s 16 20 mph 1019mb 73f 72f
12:50am 4.5ft 6s 5s 16 18 mph 1019.8mb 73f 73f
Sat 07/19 11:50pm 4ft 6s 5s 13 16 mph 1020.4mb 73f 73f
10:50pm 4ft 6s 5s 13 16 mph 1020.6mb 73f 73f
9:50pm 4.5ft 8s 5s 18 20 mph 1020.4mb 73f 73f
8:50pm 4.5ft 8s 5s 13 18 mph 1021mb 73f 72f
7:50pm 4.5ft 8s 5s 18 20 mph 1020.7mb 73f 72f
6:50pm 4.5ft 8s 5s 18 20 mph 1020.4mb 73f 72f
5:50pm 4.5ft 8s 5s 16 18 mph 1021.1mb 73f 73f
4:50pm 4ft 8s 5s 16 18 mph 1021.3mb 73f 73f
3:50pm 3.5ft 8s 5s 11 16 mph 1021.8mb 73f 73f
2:50pm 3.5ft 8s 5s 16 18 mph 1021.7mb 74f 73f
1:50pm 3.5ft 9s 5s 16 20 mph 1021.6mb 74f 73f
12:50pm 3.5ft 8s 5s 16 20 mph 1022mb 74f 74f
11:50am 3ft 8s 5s 16 18 mph 1022.5mb 74f 73f
10:50am 3ft 8s 5s 13 18 mph 1022.8mb 74f 73f
9:50am 2.5ft 8s 5s 13 16 mph 1022.9mb 74f 73f
8:50am 2.5ft 8s 5s 13 16 mph 1023.2mb 74f 73f
7:50am 3ft 8s 6s 13 16 mph 1022.6mb 74f 73f
6:50am 3ft 8s 6s 11 13 mph 1022.7mb 74f 73f